Time;durP1;ratioP1;P1;durP2;ratioP2;P2;SDS_P1;SDS_P2;PMS_P1;PMS_P2;Temp;Humidity;BMP_temperature;BMP_pressure;BME280_temperature;BME280_humidity;BME280_pressure;Samples;Min_cycle;Max_cycle;Signal;HPM_P1;HPM_P2
2023/04/14 00:00:11;;;;;;;;;1.00;1.00;;;;;10.22;57.20;100628.72;4998500;28;46174;-51
2023/04/14 00:02:36;;;;;;;;;0.67;0.67;;;;;10.19;57.57;100627.19;4997297;28;45175;-50
2023/04/14 00:05:03;;;;;;;;;3.00;2.00;;;;;10.22;57.38;100628.72;4998770;28;45415;-47
2023/04/14 00:07:28;;;;;;;;;1.33;1.33;;;;;10.28;57.39;100629.97;4998679;28;45273;-48
2023/04/14 00:09:54;;;;;;;;;2.00;2.00;;;;;10.33;56.77;100631.22;4997988;28;45612;-59
2023/04/14 00:12:19;;;;;;;;;1.00;1.00;;;;;10.36;57.29;100640.72;4998810;28;45488;-54
2023/04/14 00:14:45;;;;;;;;;1.67;1.67;;;;;10.39;56.82;100637.75;4999290;28;45416;-61
2023/04/14 00:17:10;;;;;;;;;2.00;2.00;;;;;10.39;57.00;100625.31;4998712;28;45417;-49
2023/04/14 00:19:36;;;;;;;;;3.00;2.00;;;;;10.40;57.18;100626.13;4998431;28;45515;-57
2023/04/14 00:22:01;;;;;;;;;1.67;1.67;;;;;10.35;57.35;100610.63;4998193;28;45358;-54
2023/04/14 00:24:27;;;;;;;;;4.00;2.00;;;;;10.28;57.25;100611.38;4998524;28;45847;-49
2023/04/14 00:26:52;;;;;;;;;4.67;2.00;;;;;10.23;57.25;100612.59;4998382;28;45499;-48
2023/04/14 00:29:17;;;;;;;;;2.33;1.33;;;;;10.17;57.06;100612.38;4998131;28;46275;-51
2023/04/14 00:31:43;;;;;;;;;2.00;2.00;;;;;10.11;57.98;100610.28;4998046;28;45341;-51
2023/04/14 00:34:08;;;;;;;;;4.00;2.00;;;;;10.05;57.29;100616.22;4997939;28;47534;-49
2023/04/14 00:36:33;;;;;;;;;4.33;2.00;;;;;9.92;57.65;100601.44;4998537;28;45312;-54
2023/04/14 00:38:59;;;;;;;;;2.00;2.00;;;;;9.97;57.98;100614.28;4997289;28;46865;-48
2023/04/14 00:41:25;;;;;;;;;3.00;3.00;;;;;9.84;58.03;100595.16;4997893;28;45365;-52
2023/04/14 00:43:53;;;;;;;;;1.67;1.67;;;;;9.92;58.13;100608.56;4998102;28;45319;-50
2023/04/14 00:46:19;;;;;;;;;1.33;1.33;;;;;9.90;58.58;100608.72;4998366;28;45397;-48
2023/04/14 00:48:44;;;;;;;;;5.00;1.33;;;;;9.87;58.44;100603.69;4997918;28;45373;-52
2023/04/14 00:51:10;;;;;;;;;2.00;2.00;;;;;9.90;58.45;100600.75;4996662;28;45278;-50
2023/04/14 00:53:36;;;;;;;;;4.33;2.00;;;;;9.91;58.19;100601.59;4998167;28;45410;-47
2023/04/14 00:56:02;;;;;;;;;3.00;3.00;;;;;9.86;58.58;100599.38;4997807;28;45324;-45
2023/04/14 00:58:28;;;;;;;;;2.00;2.00;;;;;9.83;58.41;100598.81;4996277;28;46140;-47
2023/04/14 01:00:54;;;;;;;;;8.00;5.00;;;;;9.79;58.91;100597.44;4997655;28;45380;-50
2023/04/14 01:03:21;;;;;;;;;5.67;3.00;;;;;9.70;58.86;100594.66;4997697;28;45261;-50
2023/04/14 01:05:46;;;;;;;;;2.00;2.00;;;;;9.63;59.07;100584.75;4997853;28;45192;-46
2023/04/14 01:08:12;;;;;;;;;1.00;1.00;;;;;9.70;59.24;100599.13;4997336;28;46272;-47
2023/04/14 01:10:45;;;;;;;;;1.00;1.00;;;;;9.68;59.45;100599.25;4997331;28;45388;-49
2023/04/14 01:13:34;;;;;;;;;2.00;2.00;;;;;9.66;59.65;100598.59;4997598;28;45261;-50
2023/04/14 01:16:06;;;;;;;;;5.00;2.00;;;;;9.62;59.56;100591.88;4997662;28;45434;-50
2023/04/14 01:18:31;;;;;;;;;6.33;3.00;;;;;9.63;60.33;100600.69;4997336;28;46430;-48
2023/04/14 01:21:04;;;;;;;;;2.33;2.00;;;;;9.47;59.58;100585.34;4997467;28;45396;-47
2023/04/14 01:23:47;;;;;;;;;3.00;3.00;;;;;9.57;59.73;100602.13;4997641;28;45180;-51
2023/04/14 01:26:25;;;;;;;;;1.67;1.67;;;;;9.52;59.91;100612.31;4997770;28;45384;-53
2023/04/14 01:29:05;;;;;;;;;2.00;2.00;;;;;9.44;60.21;100601.59;4997323;28;45287;-48
2023/04/14 01:31:45;;;;;;;;;3.00;2.00;;;;;9.39;60.24;100606.47;4997148;28;45368;-54
2023/04/14 01:34:32;;;;;;;;;4.00;2.00;;;;;9.40;60.87;100606.34;4997321;28;45440;-57
2023/04/14 01:37:05;;;;;;;;;2.00;2.00;;;;;9.41;60.36;100607.19;4996162;28;45496;-47
2023/04/14 01:39:35;;;;;;;;;6.25;4.50;;;;;9.39;60.49;100603.81;4997517;28;46038;-49
2023/04/14 01:42:05;;;;;;;;;6.67;2.00;;;;;9.35;60.90;100600.59;4997256;28;45447;-49
2023/04/14 01:44:32;;;;;;;;;2.67;2.67;;;;;9.15;61.40;100570.63;4958584;28;45354;-55
2023/04/14 01:47:03;;;;;;;;;6.33;2.33;;;;;9.32;60.78;100602.72;4958214;28;45425;-54
2023/04/14 01:49:31;;;;;;;;;5.00;2.67;;;;;9.30;61.34;100607.31;4957847;28;46202;-48
2023/04/14 01:51:57;;;;;;;;;5.33;2.67;;;;;9.23;60.50;100605.25;4959417;28;45306;-47
2023/04/14 01:54:23;;;;;;;;;2.00;2.00;;;;;9.11;60.94;100581.66;4961397;28;45268;-49
2023/04/14 01:56:51;;;;;;;;;5.00;4.33;;;;;9.16;62.04;100603.28;4961504;28;45328;-46
2023/04/14 01:59:20;;;;;;;;;4.50;3.00;;;;;9.05;61.46;100598.94;4961041;28;46355;-48
2023/04/14 02:01:48;;;;;;;;;5.25;4.00;;;;;8.96;62.25;100599.81;4961239;28;45366;-48
2023/04/14 02:04:14;;;;;;;;;3.00;3.00;;;;;8.94;63.06;100599.94;4961220;28;45429;-46
2023/04/14 02:06:41;;;;;;;;;2.00;2.00;;;;;8.91;63.08;100602.03;4961541;28;45431;-46
2023/04/14 02:09:11;;;;;;;;;4.00;4.00;;;;;8.85;63.27;100600.78;4992277;28;47004;-46
2023/04/14 02:11:37;;;;;;;;;7.50;4.00;;;;;8.77;63.55;100600.66;4975783;28;45432;-49
2023/04/14 02:14:04;;;;;;;;;9.00;5.25;;;;;8.79;63.70;100608.44;4961029;28;45680;-49
2023/04/14 02:16:32;;;;;;;;;10.25;5.00;;;;;8.76;63.72;100606.91;4961478;28;45396;-48
2023/04/14 02:18:59;;;;;;;;;5.00;3.25;;;;;8.66;63.47;100596.28;4961712;28;45313;-49
2023/04/14 02:21:25;;;;;;;;;9.00;5.00;;;;;8.72;64.37;100603.72;4960798;28;45273;-48
2023/04/14 02:23:51;;;;;;;;;1.00;1.00;;;;;8.76;63.48;100612.22;4961082;28;45346;-47
2023/04/14 02:26:22;;;;;;;;;5.00;5.00;;;;;8.72;63.08;100605.50;4961044;28;45484;-51
2023/04/14 02:29:11;;;;;;;;;6.75;6.00;;;;;8.68;63.89;100598.78;4960834;28;45716;-48
2023/04/14 02:31:42;;;;;;;;;4.25;4.25;;;;;8.68;64.05;100598.78;4960547;28;45214;-48
2023/04/14 02:34:11;;;;;;;;;3.00;3.00;;;;;8.67;64.25;100597.13;4960938;28;45514;-46
2023/04/14 02:36:42;;;;;;;;;5.00;5.00;;;;;8.69;64.64;100589.88;4960807;28;45400;-52
2023/04/14 02:39:21;;;;;;;;;6.75;4.50;;;;;8.68;63.58;100597.00;4960517;28;46105;-52
2023/04/14 02:41:55;;;;;;;;;5.00;5.00;;;;;8.65;63.19;100589.31;4960387;28;45277;-50
2023/04/14 02:44:48;;;;;;;;;4.50;4.50;;;;;8.64;63.21;100590.31;4997381;28;45349;-46
2023/04/14 02:47:30;;;;;;;;;2.75;1.25;;;;;8.57;63.73;100586.53;4978094;28;45224;-48
2023/04/14 02:49:59;;;;;;;;;6.00;3.25;;;;;8.56;64.10;100582.19;4977693;28;47385;-46
2023/04/14 02:52:30;;;;;;;;;9.00;5.00;;;;;8.55;64.84;100574.38;4977624;28;45504;-49
2023/04/14 02:54:57;;;;;;;;;3.00;1.50;;;;;8.43;64.41;100557.78;4977386;28;45323;-50
2023/04/14 02:57:25;;;;;;;;;5.25;3.25;;;;;8.48;64.23;100568.78;4977655;28;45527;-54
2023/04/14 02:59:51;;;;;;;;;5.00;3.25;;;;;8.50;65.13;100567.66;4961463;28;45359;-48
2023/04/14 03:02:17;;;;;;;;;2.25;2.25;;;;;8.47;64.30;100567.97;4976462;28;45287;-46
2023/04/14 03:04:43;;;;;;;;;2.75;2.75;;;;;8.40;64.79;100553.56;4977660;28;45315;-47
2023/04/14 03:07:12;;;;;;;;;5.00;2.00;;;;;8.40;64.86;100558.03;4977965;28;45396;-48
2023/04/14 03:09:39;;;;;;;;;5.00;5.00;;;;;8.37;65.32;100559.13;4977589;28;46990;-47
2023/04/14 03:12:06;;;;;;;;;5.00;5.00;;;;;8.33;65.03;100548.91;4977130;28;45422;-49
2023/04/14 03:14:33;;;;;;;;;6.00;6.00;;;;;8.31;64.99;100554.34;4977545;28;45287;-53
2023/04/14 03:16:59;;;;;;;;;2.50;2.50;;;;;8.31;66.28;100553.53;4977849;28;45538;-46
2023/04/14 03:19:26;;;;;;;;;3.50;3.50;;;;;8.29;65.95;100550.16;4977195;28;46238;-47
2023/04/14 03:21:53;;;;;;;;;5.00;4.50;;;;;8.24;66.27;100553.22;4977436;28;45385;-52
2023/04/14 03:24:23;;;;;;;;;3.00;3.00;;;;;8.21;66.91;100554.31;4989776;28;45258;-45
2023/04/14 03:27:01;;;;;;;;;7.75;5.00;;;;;8.14;65.91;100542.59;4999246;28;45333;-50
2023/04/14 03:29:33;;;;;;;;;6.00;3.50;;;;;8.11;66.57;100545.53;4998904;28;45969;-47
2023/04/14 03:32:05;;;;;;;;;10.50;5.00;;;;;8.11;66.83;100555.28;4998948;28;45244;-49
2023/04/14 03:34:33;;;;;;;;;4.00;4.00;;;;;8.08;67.16;100548.44;4999107;28;45372;-47
2023/04/14 03:36:59;;;;;;;;;5.00;4.25;;;;;8.08;66.53;100553.72;4998002;28;45530;-47
2023/04/14 03:39:27;;;;;;;;;5.00;5.00;;;;;8.01;66.99;100542.03;4998778;28;46170;-49
2023/04/14 03:41:56;;;;;;;;;5.00;5.00;;;;;8.02;66.19;100546.34;4998439;28;45545;-46
2023/04/14 03:44:25;;;;;;;;;6.00;4.75;;;;;7.97;67.70;100546.75;4999071;28;45268;-56
2023/04/14 03:46:50;;;;;;;;;5.00;2.00;;;;;7.95;67.31;100551.31;4997707;28;45609;-52
2023/04/14 03:49:17;;;;;;;;;5.25;4.50;;;;;7.96;66.56;100544.22;4998852;28;45436;-52
2023/04/14 03:51:46;;;;;;;;;6.75;4.75;;;;;7.94;67.28;100547.00;4998841;28;45437;-48
2023/04/14 03:54:15;;;;;;;;;4.50;2.00;;;;;7.93;67.85;100545.34;4998732;28;45302;-50
2023/04/14 03:56:44;;;;;;;;;6.00;4.50;;;;;7.93;66.70;100539.22;4998918;28;45515;-50
2023/04/14 03:59:14;;;;;;;;;4.50;4.00;;;;;7.94;67.02;100540.88;4998939;28;45837;-49
2023/04/14 04:01:40;;;;;;;;;4.50;4.50;;;;;7.95;68.25;100539.91;4998563;28;45393;-48
2023/04/14 04:04:07;;;;;;;;;6.00;4.50;;;;;8.00;67.23;100541.16;4998626;28;45354;-50
2023/04/14 04:06:33;;;;;;;;;3.50;3.50;;;;;8.05;67.60;100542.56;4998844;28;45440;-45
2023/04/14 04:09:01;;;;;;;;;5.25;4.00;;;;;8.07;68.00;100546.75;4998418;28;45886;-48
2023/04/14 04:11:29;;;;;;;;;5.25;5.25;;;;;8.03;68.16;100539.22;4998584;28;45272;-52
2023/04/14 04:13:56;;;;;;;;;3.00;3.00;;;;;7.96;67.21;100541.56;4997266;28;45384;-45
2023/04/14 04:16:23;;;;;;;;;7.50;5.25;;;;;7.90;67.37;100536.81;4998654;28;45422;-48
2023/04/14 04:18:49;;;;;;;;;8.25;5.50;;;;;7.87;68.22;100537.91;4998224;28;45720;-48
2023/04/14 04:21:17;;;;;;;;;5.25;5.00;;;;;7.86;67.87;100540.72;4998210;28;45227;-49
2023/04/14 04:23:46;;;;;;;;;5.75;5.75;;;;;7.83;68.03;100535.66;4999049;28;45373;-48
2023/04/14 04:26:12;;;;;;;;;5.00;5.00;;;;;7.72;68.42;100528.69;4998424;28;45444;-49
2023/04/14 04:28:39;;;;;;;;;4.00;4.00;;;;;7.69;68.11;100532.41;4996745;28;46298;-47
2023/04/14 04:31:08;;;;;;;;;10.50;4.00;;;;;7.67;68.55;100529.09;4998336;28;45289;-54
2023/04/14 04:33:34;;;;;;;;;6.50;6.50;;;;;7.64;69.64;100524.03;4998042;28;45216;-47
2023/04/14 04:36:00;;;;;;;;;4.00;4.00;;;;;7.61;68.01;100524.31;4998193;28;45467;-48
2023/04/14 04:38:25;;;;;;;;;4.50;4.50;;;;;7.56;69.02;100521.22;4997878;28;46162;-47
2023/04/14 04:40:51;;;;;;;;;5.50;5.50;;;;;7.52;69.10;100522.47;4997811;28;45270;-48
2023/04/14 04:43:18;;;;;;;;;5.50;5.50;;;;;7.53;68.94;100518.00;4997874;28;45384;-45
2023/04/14 04:45:50;;;;;;;;;6.25;5.75;;;;;7.52;69.43;100511.88;4998426;28;45628;-53
2023/04/14 04:48:16;;;;;;;;;3.00;1.00;;;;;7.53;69.09;100521.47;4996311;28;46816;-46
2023/04/14 04:50:41;;;;;;;;;7.25;5.75;;;;;7.52;69.24;100508.38;4997797;28;45317;-49
2023/04/14 04:53:06;;;;;;;;;5.00;3.00;;;;;7.45;68.98;100510.72;4997693;28;45250;-49
2023/04/14 04:55:31;;;;;;;;;8.25;5.50;;;;;7.46;69.73;100510.59;4998049;28;45341;-46
2023/04/14 04:57:57;;;;;;;;;7.25;4.50;;;;;7.44;69.80;100495.81;4997634;28;46246;-51
2023/04/14 05:00:24;;;;;;;;;8.00;4.25;;;;;7.49;69.34;100502.38;4997694;28;45388;-49
2023/04/14 05:02:50;;;;;;;;;6.00;4.00;;;;;7.47;68.99;100496.38;4998032;28;45272;-51
2023/04/14 05:05:15;;;;;;;;;4.50;4.50;;;;;7.44;69.29;100501.09;4997788;28;45379;-45
2023/04/14 05:07:41;;;;;;;;;12.75;6.50;;;;;7.42;69.26;100498.59;4997531;28;45361;-53
2023/04/14 05:10:07;;;;;;;;;6.00;6.00;;;;;7.42;70.25;100500.41;4997652;28;45418;-49
2023/04/14 05:12:32;;;;;;;;;6.00;6.00;;;;;7.38;69.38;100491.91;4997887;28;45425;-50
2023/04/14 05:14:57;;;;;;;;;5.25;5.00;;;;;7.38;69.75;100491.91;4996444;28;45503;-48
2023/04/14 05:17:23;;;;;;;;;9.75;8.50;;;;;7.38;70.10;100501.66;4997336;28;45305;-52
2023/04/14 05:19:48;;;;;;;;;10.50;8.00;;;;;7.36;70.04;100487.69;4997276;28;45250;-53
2023/04/14 05:22:14;;;;;;;;;9.25;5.75;;;;;7.31;69.92;100490.75;4997562;28;45203;-56
2023/04/14 05:24:40;;;;;;;;;7.50;7.50;;;;;7.29;71.14;100494.47;4997736;28;45254;-52
2023/04/14 05:27:05;;;;;;;;;16.00;9.00;;;;;7.27;70.30;100491.97;4997220;28;47015;-50
2023/04/14 05:29:30;;;;;;;;;9.25;8.50;;;;;7.25;70.93;100478.88;4997180;28;45432;-48
2023/04/14 05:31:56;;;;;;;;;8.00;5.00;;;;;7.29;70.65;100481.25;4997591;28;45468;-46
2023/04/14 05:34:21;;;;;;;;;8.75;8.75;;;;;7.28;70.17;100471.63;4997426;28;45315;-50
2023/04/14 05:36:46;;;;;;;;;3.75;3.00;;;;;7.30;70.79;100478.47;4997192;28;46171;-47
2023/04/14 05:39:12;;;;;;;;;7.75;6.00;;;;;7.31;70.42;100481.97;4997080;28;48601;-47
2023/04/14 05:41:37;;;;;;;;;8.00;6.25;;;;;7.28;71.12;100485.69;4997260;28;45305;-45
2023/04/14 05:44:03;;;;;;;;;8.00;7.00;;;;;7.31;70.91;100481.97;4997263;28;45262;-47
2023/04/14 05:46:28;;;;;;;;;8.00;6.00;;;;;7.41;70.11;100482.84;4997032;28;47013;-47
2023/04/14 05:48:54;;;;;;;;;10.75;8.75;;;;;7.42;70.68;100477.44;4997065;28;45250;-48
2023/04/14 05:51:19;;;;;;;;;11.75;8.50;;;;;7.42;71.00;100468.66;4996747;28;45366;-53
2023/04/14 05:53:44;;;;;;;;;9.00;9.00;;;;;7.43;70.49;100457.94;4997166;28;45403;-47
2023/04/14 05:56:10;;;;;;;;;8.00;6.75;;;;;7.51;70.21;100459.91;4996666;28;46173;-46
2023/04/14 05:58:36;;;;;;;;;10.25;8.50;;;;;7.60;69.95;100464.41;4996700;28;45590;-46
2023/04/14 06:01:02;;;;;;;;;10.25;10.25;;;;;7.68;70.31;100461.91;4996725;28;45474;-48
2023/04/14 06:03:28;;;;;;;;;9.25;8.25;;;;;7.73;70.00;100464.16;4996979;28;45302;-45
2023/04/14 06:05:54;;;;;;;;;6.75;6.00;;;;;7.77;69.76;100454.13;4996496;28;46350;-47
2023/04/14 06:08:20;;;;;;;;;9.50;9.50;;;;;7.82;69.02;100460.69;4996278;28;45366;-45
2023/04/14 06:10:45;;;;;;;;;15.00;10.00;;;;;7.83;69.19;100456.22;4997050;28;45842;-47
2023/04/14 06:13:11;;;;;;;;;10.25;7.75;;;;;7.79;69.38;100450.34;4996767;28;45343;-47
2023/04/14 06:15:36;;;;;;;;;9.75;9.75;;;;;7.83;69.55;100449.13;4996564;28;45481;-46
2023/04/14 06:18:01;;;;;;;;;11.25;10.00;;;;;7.85;69.77;100452.47;4996621;28;45465;-45
2023/04/14 06:20:27;;;;;;;;;9.50;7.25;;;;;7.86;69.56;100453.31;4996742;28;45322;-47
2023/04/14 06:22:52;;;;;;;;;9.25;8.00;;;;;7.80;69.09;100452.06;4997150;28;45235;-49
2023/04/14 06:25:17;;;;;;;;;13.50;12.00;;;;;7.82;69.51;100451.91;4996675;28;45339;-47
2023/04/14 06:27:43;;;;;;;;;20.00;12.75;;;;;7.86;69.31;100448.84;4996730;28;45377;-47
2023/04/14 06:30:09;;;;;;;;;12.00;10.00;;;;;7.91;68.78;100443.97;4996453;28;45542;-45
2023/04/14 06:32:34;;;;;;;;;17.00;12.00;;;;;7.82;68.85;100430.72;4996773;28;45255;-47
2023/04/14 06:35:00;;;;;;;;;12.50;10.00;;;;;7.90;69.36;100438.81;4996453;28;46403;-47
2023/04/14 06:37:25;;;;;;;;;13.75;10.75;;;;;7.85;69.54;100447.19;4997319;28;45389;-46
2023/04/14 06:39:50;;;;;;;;;12.75;10.50;;;;;7.89;69.75;100445.94;4999891;28;45227;-47
2023/04/14 06:42:16;;;;;;;;;11.00;10.75;;;;;7.83;69.26;100443.81;4999922;28;45398;-53
2023/04/14 06:44:41;;;;;;;;;13.25;12.50;;;;;7.81;69.23;100429.06;4999670;28;46134;-51
2023/04/14 06:47:08;;;;;;;;;10.75;10.25;;;;;7.83;69.34;100429.75;4999931;28;45210;-49
2023/04/14 06:49:33;;;;;;;;;18.75;13.75;;;;;7.87;69.23;100425.84;4999918;28;45884;-53
2023/04/14 06:51:58;;;;;;;;;19.75;13.50;;;;;7.95;68.99;100426.00;4999998;28;45395;-53
2023/04/14 06:54:24;;;;;;;;;17.50;15.00;;;;;8.04;68.69;100416.38;4999132;28;46228;-50
2023/04/14 06:56:50;;;;;;;;;13.75;12.50;;;;;8.18;68.54;100422.13;4999526;28;45308;-45
2023/04/14 06:59:15;;;;;;;;;16.75;11.00;;;;;8.32;68.27;100414.72;4999606;28;45392;-47
2023/04/14 07:01:40;;;;;;;;;12.50;10.25;;;;;8.48;67.67;100415.88;4999761;28;45404;-46
2023/04/14 07:04:06;;;;;;;;;11.75;10.25;;;;;8.67;67.36;100412.34;4999452;28;46010;-47
2023/04/14 07:06:32;;;;;;;;;16.50;13.50;;;;;8.85;66.96;100406.28;5000131;28;45402;-47
2023/04/14 07:08:57;;;;;;;;;10.00;8.75;;;;;8.97;65.75;100407.78;4998129;28;45366;-45
2023/04/14 07:11:22;;;;;;;;;9.75;9.00;;;;;9.11;65.64;100410.00;4999740;28;45414;-50
2023/04/14 07:13:48;;;;;;;;;9.75;8.75;;;;;9.52;65.06;100413.16;4999361;28;45387;-45
2023/04/14 07:16:13;;;;;;;;;11.50;10.00;;;;;10.06;63.55;100406.09;4999585;28;45374;-52
2023/04/14 07:18:38;;;;;;;;;11.25;9.75;;;;;10.26;62.65;100408.66;4999423;28;45494;-51
2023/04/14 07:21:04;;;;;;;;;11.00;11.00;;;;;10.33;62.17;100407.06;4999486;28;45306;-53
2023/04/14 07:23:29;;;;;;;;;14.25;11.00;;;;;10.33;61.85;100404.41;4999658;28;45376;-52
2023/04/14 07:25:59;;;;;;;;;14.25;12.75;;;;;10.17;62.59;100395.25;4999121;28;45242;-49
2023/04/14 07:28:26;;;;;;;;;12.25;12.25;;;;;10.16;62.53;100395.41;4999246;28;45373;-45
2023/04/14 07:30:53;;;;;;;;;11.50;10.00;;;;;10.08;62.79;100390.84;4999244;28;45357;-48
2023/04/14 07:33:18;;;;;;;;;11.25;11.00;;;;;10.04;62.77;100383.34;4998846;28;46034;-48
2023/04/14 07:35:48;;;;;;;;;11.25;10.25;;;;;10.02;62.68;100390.59;4998949;28;45375;-48
2023/04/14 07:38:14;;;;;;;;;9.50;9.50;;;;;9.99;63.24;100365.19;4999097;28;45381;-47
2023/04/14 07:40:40;;;;;;;;;11.50;10.25;;;;;10.10;62.69;100385.38;4998046;28;45283;-49
2023/04/14 07:43:06;;;;;;;;;16.25;10.50;;;;;10.03;63.01;100374.53;5008675;28;46120;-46
2023/04/14 07:45:31;;;;;;;;;13.75;10.00;;;;;10.05;63.16;100374.38;5009366;28;45377;-49
2023/04/14 07:47:56;;;;;;;;;11.25;10.00;;;;;10.10;62.83;100366.75;4995817;28;45479;-49
2023/04/14 07:50:22;;;;;;;;;13.75;10.50;;;;;10.28;63.24;100364.97;4994983;28;45480;-46
2023/04/14 07:52:48;;;;;;;;;14.25;10.00;;;;;10.44;62.48;100359.75;4995802;28;46331;-49
2023/04/14 07:55:13;;;;;;;;;10.75;7.00;;;;;10.62;62.08;100353.56;4995668;28;45516;-46
2023/04/14 07:57:39;;;;;;;;;10.75;7.75;;;;;10.80;61.66;100357.00;4995300;28;45771;-48
2023/04/14 08:00:08;;;;;;;;;12.00;8.50;;;;;10.95;60.96;100355.41;4995930;28;46315;-46
2023/04/14 08:02:33;;;;;;;;;10.33;6.33;;;;;11.08;60.78;100349.69;4995322;28;46959;-49
2023/04/14 08:04:59;;;;;;;;;5.67;5.00;;;;;11.39;60.13;100349.13;4995313;28;45437;-50
2023/04/14 08:07:27;;;;;;;;;7.00;7.00;;;;;11.52;59.22;100346.00;4995957;28;45482;-47
2023/04/14 08:09:52;;;;;;;;;9.33;7.00;;;;;11.27;59.52;100339.75;4995840;28;45493;-49
2023/04/14 08:12:18;;;;;;;;;6.00;6.00;;;;;11.02;60.17;100344.97;4995578;28;46074;-48
2023/04/14 08:14:43;;;;;;;;;11.00;6.67;;;;;10.80;60.71;100345.53;4995201;28;45395;-51
2023/04/14 08:17:09;;;;;;;;;10.00;7.67;;;;;10.48;61.52;100345.16;4994875;28;45361;-47
2023/04/14 08:19:35;;;;;;;;;7.00;7.00;;;;;10.15;62.36;100329.94;4995765;28;45540;-53
2023/04/14 08:22:01;;;;;;;;;10.00;8.33;;;;;10.11;62.74;100357.81;4995238;28;46527;-47
2023/04/14 08:24:26;;;;;;;;;7.50;7.50;;;;;10.00;63.45;100349.09;4995352;28;45420;-48
2023/04/14 08:26:51;;;;;;;;;8.00;6.75;;;;;9.98;63.44;100350.22;4994829;28;45468;-45
2023/04/14 08:29:17;;;;;;;;;8.00;7.00;;;;;9.91;64.02;100338.53;4995344;28;45877;-48
2023/04/14 08:31:42;;;;;;;;;9.00;5.00;;;;;9.87;64.07;100343.31;4995147;28;46040;-48
2023/04/14 08:34:08;;;;;;;;;4.00;3.50;;;;;9.83;64.10;100339.28;4995071;28;45444;-48
2023/04/14 08:36:33;;;;;;;;;5.50;4.75;;;;;9.84;63.96;100348.09;4995358;28;45463;-48
2023/04/14 08:38:59;;;;;;;;;8.00;5.75;;;;;9.86;64.40;100335.47;4994794;28;45231;-49
2023/04/14 08:41:25;;;;;;;;;10.25;5.75;;;;;9.90;64.77;100335.06;4995112;28;45519;-48
2023/04/14 08:43:51;;;;;;;;;7.75;5.25;;;;;10.03;63.98;100332.00;4994920;28;45528;-47
2023/04/14 08:46:19;;;;;;;;;5.00;5.00;;;;;10.17;63.41;100331.44;4994916;28;45389;-47
2023/04/14 08:48:46;;;;;;;;;8.00;5.25;;;;;10.34;63.31;100332.44;4994966;28;45488;-49
2023/04/14 08:51:31;;;;;;;;;6.75;5.75;;;;;10.45;63.03;100326.88;4994675;28;47174;-47
2023/04/14 08:53:57;;;;;;;;;11.00;5.50;;;;;10.55;62.61;100321.44;4994809;28;45402;-47
2023/04/14 08:56:25;;;;;;;;;6.00;6.00;;;;;10.59;62.58;100317.47;4994927;28;45489;-46
2023/04/14 08:58:52;;;;;;;;;9.00;6.67;;;;;10.57;62.22;100323.94;4995096;28;45413;-47
2023/04/14 09:01:18;;;;;;;;;9.25;7.25;;;;;10.59;62.08;100329.94;4993886;28;46385;-47
2023/04/14 09:03:43;;;;;;;;;9.67;5.33;;;;;10.72;62.13;100315.22;4994656;28;45449;-45
2023/04/14 09:06:09;;;;;;;;;5.33;5.33;;;;;10.74;61.51;100318.59;4994894;28;45443;-46
2023/04/14 09:08:35;;;;;;;;;4.67;4.67;;;;;10.76;61.73;100312.25;4995134;28;45583;-47
2023/04/14 09:11:02;;;;;;;;;7.00;6.00;;;;;10.76;61.65;100301.63;4994594;28;46128;-46
2023/04/14 09:13:28;;;;;;;;;7.67;5.00;;;;;10.71;61.39;100294.94;4994195;28;45474;-48
2023/04/14 09:15:54;;;;;;;;;7.00;5.00;;;;;10.61;61.85;100286.22;4994609;28;45517;-48
2023/04/14 09:18:20;;;;;;;;;3.33;3.33;;;;;10.71;61.71;100294.94;4994882;28;45521;-49
2023/04/14 09:20:46;;;;;;;;;5.00;2.33;;;;;10.80;61.61;100289.66;4994355;28;46200;-46
2023/04/14 09:23:13;;;;;;;;;6.00;3.00;;;;;10.80;61.33;100295.00;4994500;28;45430;-46
2023/04/14 09:25:40;;;;;;;;;7.67;6.67;;;;;10.72;61.38;100283.31;4994600;28;45467;-50
2023/04/14 09:28:06;;;;;;;;;7.00;3.00;;;;;10.63;61.83;100270.13;4994758;28;45373;-50
2023/04/14 09:30:32;;;;;;;;;6.67;5.67;;;;;10.51;61.91;100272.22;4993565;28;45481;-48
2023/04/14 09:32:57;;;;;;;;;5.33;4.00;;;;;10.46;62.20;100269.22;4976387;28;45411;-48
2023/04/14 09:35:43;;;;;;;;;5.00;4.33;;;;;10.41;62.48;100260.88;4994768;28;45361;-48
2023/04/14 09:38:08;;;;;;;;;3.00;2.00;;;;;10.42;62.57;100265.19;4994852;28;45450;-47
2023/04/14 09:40:34;;;;;;;;;3.00;3.00;;;;;10.43;62.88;100261.53;4994300;28;46227;-47
2023/04/14 09:42:59;;;;;;;;;5.00;5.00;;;;;10.50;62.72;100273.22;4994295;28;45503;-50
2023/04/14 09:45:41;;;;;;;;;2.00;2.00;;;;;10.44;62.37;100252.56;4994526;28;45500;-49
2023/04/14 09:48:09;;;;;;;;;5.33;2.67;;;;;10.54;62.72;100255.13;4994242;28;45524;-46
2023/04/14 09:50:57;;;;;;;;;4.00;2.00;;;;;10.60;62.18;100247.34;4993790;28;45404;-44
2023/04/14 09:53:30;;;;;;;;;3.00;3.00;;;;;10.62;62.56;100237.38;4994327;28;45630;-47
2023/04/14 09:55:58;;;;;;;;;5.67;2.00;;;;;10.67;62.22;100243.06;4994461;28;46015;-45
2023/04/14 09:58:28;;;;;;;;;2.00;2.00;;;;;10.70;62.05;100242.75;4977067;28;45267;-46
2023/04/14 10:00:53;;;;;;;;;1.67;1.67;;;;;10.77;62.41;100232.28;4994251;28;46289;-45
2023/04/14 10:03:33;;;;;;;;;1.00;1.00;;;;;10.72;62.26;100230.09;4993887;28;45275;-45
2023/04/14 10:06:00;;;;;;;;;0.67;0.67;;;;;10.74;62.13;100238.78;4994232;28;45417;-49
2023/04/14 10:08:36;;;;;;;;;4.67;1.67;;;;;10.80;62.03;100239.94;4993687;28;45408;-47
2023/04/14 10:11:22;;;;;;;;;4.33;3.67;;;;;10.97;62.08;100238.19;4993803;28;45495;-44
2023/04/14 10:13:56;;;;;;;;;3.00;3.00;;;;;11.27;61.25;100228.75;4996539;28;45482;-45
2023/04/14 10:16:23;;;;;;;;;2.00;1.00;;;;;11.40;61.05;100230.94;4997363;28;45434;-44
2023/04/14 10:18:51;;;;;;;;;3.67;2.00;;;;;11.39;60.18;100232.78;4997250;28;45465;-48
2023/04/14 10:21:17;;;;;;;;;1.00;1.00;;;;;11.26;60.40;100220.94;4997444;28;45454;-47
2023/04/14 10:23:43;;;;;;;;;2.00;2.00;;;;;11.23;60.54;100225.59;4997288;28;45353;-47
2023/04/14 10:26:10;;;;;;;;;5.33;2.00;;;;;11.11;60.58;100215.41;4997698;28;45435;-50
2023/04/14 10:28:42;;;;;;;;;6.00;3.00;;;;;11.10;60.86;100211.91;4997484;28;45592;-46
2023/04/14 10:31:14;;;;;;;;;5.67;3.00;;;;;11.16;61.03;100215.75;4997087;28;45500;-49
2023/04/14 10:33:41;;;;;;;;;9.67;2.33;;;;;11.10;60.73;100209.25;4996948;28;45496;-48
2023/04/14 10:36:07;;;;;;;;;4.00;1.00;;;;;11.13;61.09;100200.97;4997493;28;45839;-49
2023/04/14 10:38:42;;;;;;;;;3.67;2.00;;;;;11.03;60.77;100181.63;4996521;28;45456;-50
2023/04/14 10:41:10;;;;;;;;;4.33;2.33;;;;;11.17;61.15;100202.28;4997123;28;46490;-48
2023/04/14 10:43:36;;;;;;;;;6.33;3.67;;;;;11.12;60.90;100195.78;4996405;28;45413;-51
2023/04/14 10:46:03;;;;;;;;;6.00;1.00;;;;;11.11;60.76;100183.47;4995626;28;45156;-47
2023/04/14 10:48:37;;;;;;;;;5.00;5.00;;;;;11.15;60.93;100198.94;4996882;28;45547;-51
2023/04/14 10:51:05;;;;;;;;;4.67;3.00;;;;;11.02;61.07;100156.00;4996557;28;47343;-48
2023/04/14 10:53:44;;;;;;;;;4.33;3.00;;;;;11.15;60.83;100182.97;4996614;28;45727;-47
2023/04/14 10:56:10;;;;;;;;;4.00;4.00;;;;;11.18;60.52;100190.66;4996734;28;45408;-49
2023/04/14 10:58:36;;;;;;;;;8.00;6.00;;;;;11.24;60.25;100186.47;4996003;28;45349;-46
2023/04/14 11:01:30;;;;;;;;;2.67;2.67;;;;;11.28;60.72;100177.16;4996223;28;47236;-48
2023/04/14 11:04:09;;;;;;;;;5.00;2.00;;;;;11.27;60.07;100154.22;4996204;28;45475;-49
2023/04/14 11:06:52;;;;;;;;;6.67;6.00;;;;;11.48;59.91;100164.38;4996590;28;45535;-51
2023/04/14 11:09:35;;;;;;;;;11.00;6.67;;;;;11.63;59.90;100186.69;4996840;28;46459;-49
2023/04/14 11:12:22;;;;;;;;;3.67;3.67;;;;;11.63;59.27;100183.16;4996403;28;47012;-48
2023/04/14 11:14:48;;;;;;;;;6.33;3.00;;;;;11.64;59.10;100160.88;4995504;28;45473;-49
2023/04/14 11:17:20;;;;;;;;;1.00;1.00;;;;;11.51;59.32;100160.56;4996107;28;45602;-49
2023/04/14 11:19:45;;;;;;;;;2.33;2.33;;;;;11.53;59.84;100172.69;4996992;28;45590;-49
2023/04/14 11:22:10;;;;;;;;;1.33;1.33;;;;;11.51;60.47;100147.22;4996123;28;45689;-50
2023/04/14 11:24:36;;;;;;;;;2.67;2.67;;;;;11.46;60.62;100134.38;4995887;28;45342;-49
2023/04/14 11:27:01;;;;;;;;;7.33;2.67;;;;;11.50;61.06;100130.38;4996074;28;45507;-49
2023/04/14 11:29:26;;;;;;;;;4.00;2.33;;;;;11.54;61.71;100122.91;4996328;28;45429;-51